createdAt,value
2023-05-05T00:00:08.912Z,101320.19
2023-05-05T00:02:36.203Z,101324.81
2023-05-05T00:05:03.367Z,101321.22
2023-05-05T00:07:29.982Z,101322.94
2023-05-05T00:09:56.493Z,101332.19
2023-05-05T00:12:23.059Z,101333.06
2023-05-05T00:14:49.562Z,101327.56
2023-05-05T00:17:16.181Z,101327.56
2023-05-05T00:19:42.909Z,101326.72
2023-05-05T00:22:09.600Z,101333.06
2023-05-05T00:24:36.074Z,101326.72
2023-05-05T00:27:03.491Z,101336.66
2023-05-05T00:29:30.497Z,101328.59
2023-05-05T00:31:57.269Z,101327.56
2023-05-05T00:34:23.787Z,101320.38
2023-05-05T00:36:50.319Z,101326.72
2023-05-05T00:39:16.771Z,101332.19
2023-05-05T00:41:43.302Z,101323.97
2023-05-05T00:44:09.839Z,101325.00
2023-05-05T00:46:37.264Z,101324.16
2023-05-05T00:49:04.056Z,101334.09
2023-05-05T00:51:32.000Z,101339.59
2023-05-05T00:53:58.546Z,101342.34
2023-05-05T00:56:27.347Z,101339.59
2023-05-05T00:58:54.199Z,101336.00
2023-05-05T01:01:20.762Z,101331.53
2023-05-05T01:03:47.404Z,101329.66
2023-05-05T01:06:32.764Z,101340.44
2023-05-05T01:09:08.900Z,101345.25
2023-05-05T01:11:55.361Z,101351.59
2023-05-05T01:14:36.778Z,101356.25
2023-05-05T01:17:21.893Z,101347.16
2023-05-05T01:20:07.974Z,101355.59
2023-05-05T01:22:40.071Z,101352.84
2023-05-05T01:25:31.029Z,101351.97
2023-05-05T01:28:18.893Z,101359.38
2023-05-05T01:31:09.416Z,101362.09
2023-05-05T01:33:51.907Z,101365.91
2023-05-05T01:36:26.070Z,101368.63
2023-05-05T01:38:58.003Z,101376.88
2023-05-05T01:41:41.147Z,101374.97
2023-05-05T01:44:10.549Z,101378.59
2023-05-05T01:46:37.409Z,101373.09
2023-05-05T01:49:05.088Z,101373.09
2023-05-05T01:51:32.250Z,101370.34
2023-05-05T01:54:05.606Z,101384.94
2023-05-05T01:56:33.154Z,101382.19
2023-05-05T01:59:01.632Z,101377.53
2023-05-05T02:01:30.336Z,101387.66
2023-05-05T02:03:58.787Z,101380.28
2023-05-05T02:06:28.176Z,101373.09
2023-05-05T02:08:58.326Z,101368.44
2023-05-05T02:11:26.375Z,101362.09
2023-05-05T02:13:54.560Z,101352.16
2023-05-05T02:16:22.540Z,101344.78
2023-05-05T02:18:50.264Z,101346.50
2023-05-05T02:21:18.096Z,101360.22
2023-05-05T02:23:47.269Z,101359.38
2023-05-05T02:26:16.709Z,101370.34
2023-05-05T02:29:10.741Z,101379.44
2023-05-05T02:31:44.327Z,101376.03
2023-05-05T02:34:16.416Z,101372.44
2023-05-05T02:36:44.762Z,101366.94
2023-05-05T02:39:17.610Z,101386.16
2023-05-05T02:41:47.219Z,101387.84
2023-05-05T02:44:24.580Z,101379.63
2023-05-05T02:46:51.659Z,101387.84
2023-05-05T02:49:18.292Z,101385.13
2023-05-05T02:51:45.081Z,101377.06
2023-05-05T02:54:20.623Z,101386.16
2023-05-05T02:56:49.970Z,101390.59
2023-05-05T02:59:48.601Z,101396.09
2023-05-05T03:02:43.268Z,101398.16
2023-05-05T03:05:19.600Z,101400.06
2023-05-05T03:07:55.836Z,101401.09
2023-05-05T03:10:31.174Z,101398.34
2023-05-05T03:13:02.679Z,101400.25
2023-05-05T03:15:40.959Z,101401.09
2023-05-05T03:18:10.612Z,101395.59
2023-05-05T03:20:40.664Z,101403.84
2023-05-05T03:23:10.266Z,101406.59
2023-05-05T03:25:48.657Z,101410.19
2023-05-05T03:28:27.463Z,101414.81
2023-05-05T03:30:56.368Z,101416.72
2023-05-05T03:33:22.992Z,101410.38
2023-05-05T03:35:49.817Z,101404.88
2023-05-05T03:38:17.799Z,101404.69
2023-05-05T03:40:45.800Z,101403.00
2023-05-05T03:43:16.884Z,101408.47
2023-05-05T03:45:43.499Z,101422.22
2023-05-05T03:48:10.771Z,101424.94
2023-05-05T03:50:39.355Z,101435.06
2023-05-05T03:53:06.001Z,101426.00
2023-05-05T03:55:32.880Z,101427.69
2023-05-05T03:57:59.394Z,101424.09
2023-05-05T04:00:26.262Z,101428.75
2023-05-05T04:02:52.853Z,101436.97
2023-05-05T04:05:20.158Z,101435.06
2023-05-05T04:07:46.971Z,101428.75
2023-05-05T04:10:14.823Z,101438.00
2023-05-05T04:12:41.595Z,101439.72
2023-05-05T04:15:08.903Z,101438.88
2023-05-05T04:17:36.062Z,101447.94
2023-05-05T04:20:03.234Z,101453.44
2023-05-05T04:22:32.380Z,101451.72
2023-05-05T04:24:59.522Z,101449.00
2023-05-05T04:27:28.852Z,101455.34
2023-05-05T04:29:57.105Z,101459.97
2023-05-05T04:32:24.465Z,101470.94
2023-05-05T04:34:51.674Z,101473.69
2023-05-05T04:37:18.849Z,101474.56
2023-05-05T04:39:46.527Z,101480.03
2023-05-05T04:42:13.700Z,101479.19
2023-05-05T04:44:40.307Z,101479.19
2023-05-05T04:47:07.709Z,101475.41
2023-05-05T04:49:34.701Z,101474.72
2023-05-05T04:52:01.562Z,101481.94
2023-05-05T04:54:28.020Z,101482.78
2023-05-05T04:56:55.647Z,101479.19
2023-05-05T04:59:22.208Z,101482.78
2023-05-05T05:01:48.905Z,101478.34
2023-05-05T05:04:18.497Z,101477.28
2023-05-05T05:06:46.055Z,101482.78
2023-05-05T05:09:13.134Z,101488.28
2023-05-05T05:11:39.751Z,101487.41
2023-05-05T05:14:06.871Z,101481.94
2023-05-05T05:16:33.615Z,101491.03
2023-05-05T05:19:01.635Z,101483.81
2023-05-05T05:21:29.925Z,101485.72
2023-05-05T05:23:56.464Z,101488.47
2023-05-05T05:26:24.158Z,101491.19
2023-05-05T05:28:51.149Z,101485.72
2023-05-05T05:31:18.480Z,101489.31
2023-05-05T05:33:45.360Z,101480.22
2023-05-05T05:36:13.748Z,101484.84
2023-05-05T05:38:40.310Z,101479.38
2023-05-05T05:41:07.705Z,101481.06
2023-05-05T05:43:36.837Z,101484.84
2023-05-05T05:46:05.356Z,101493.09
2023-05-05T05:48:33.413Z,101488.47
2023-05-05T05:51:00.091Z,101488.47
2023-05-05T05:53:26.654Z,101494.81
2023-05-05T05:55:54.437Z,101494.81
2023-05-05T05:58:21.266Z,101502.19
2023-05-05T06:00:48.931Z,101502.19
2023-05-05T06:03:15.894Z,101504.94
2023-05-05T06:05:42.699Z,101503.91
2023-05-05T06:08:09.982Z,101503.91
2023-05-05T06:10:42.041Z,101505.78
2023-05-05T06:13:13.131Z,101501.16
2023-05-05T06:15:43.594Z,101514.88
2023-05-05T06:18:12.442Z,101517.63
2023-05-05T06:20:39.126Z,101529.44
2023-05-05T06:23:06.174Z,101525.00
2023-05-05T06:25:36.136Z,101529.44
2023-05-05T06:28:02.726Z,101533.06
2023-05-05T06:30:29.826Z,101534.75
2023-05-05T06:32:56.366Z,101533.06
2023-05-05T06:35:23.108Z,101536.66
2023-05-05T06:37:49.595Z,101538.53
2023-05-05T06:40:16.209Z,101545.75
2023-05-05T06:42:42.724Z,101540.25
2023-05-05T06:45:15.426Z,101545.75
2023-05-05T06:47:42.432Z,101546.59
2023-05-05T06:50:09.394Z,101548.47
2023-05-05T06:52:36.215Z,101549.34
2023-05-05T06:55:04.503Z,101555.88
2023-05-05T06:57:31.241Z,101559.47
2023-05-05T06:59:57.866Z,101559.47
2023-05-05T07:02:26.653Z,101555.00
2023-05-05T07:04:55.311Z,101555.88
2023-05-05T07:07:22.183Z,101559.66
2023-05-05T07:09:48.676Z,101555.88
2023-05-05T07:12:15.320Z,101555.00
2023-05-05T07:14:41.932Z,101558.44
2023-05-05T07:17:08.402Z,101562.22
2023-05-05T07:19:34.892Z,101559.47
2023-05-05T07:22:01.344Z,101558.63
2023-05-05T07:24:27.866Z,101556.72
2023-05-05T07:26:54.403Z,101566.66
2023-05-05T07:29:21.068Z,101563.25
2023-05-05T07:31:47.585Z,101572.16
2023-05-05T07:34:14.115Z,101571.31
2023-05-05T07:36:40.699Z,101572.16
2023-05-05T07:39:07.839Z,101578.69
2023-05-05T07:41:34.328Z,101576.78
2023-05-05T07:44:01.340Z,101581.44
2023-05-05T07:46:27.907Z,101577.81
2023-05-05T07:48:54.424Z,101573.19
2023-05-05T07:51:21.531Z,101578.50
2023-05-05T07:53:48.075Z,101573.00
2023-05-05T07:56:14.600Z,101570.25
2023-05-05T07:58:42.171Z,101568.38
2023-05-05T08:01:10.988Z,101567.34
2023-05-05T08:03:37.868Z,101564.78
2023-05-05T08:06:12.095Z,101570.94
2023-05-05T08:08:38.669Z,101571.13
2023-05-05T08:11:06.614Z,101561.00
2023-05-05T08:13:34.294Z,101561.84
2023-05-05T08:16:00.966Z,101567.34
2023-05-05T08:18:27.513Z,101565.25
2023-05-05T08:20:54.744Z,101565.25
2023-05-05T08:23:21.615Z,101557.88
2023-05-05T08:25:48.192Z,101566.97
2023-05-05T08:28:14.706Z,101561.47
2023-05-05T08:30:41.404Z,101554.97
2023-05-05T08:33:07.907Z,101554.09
2023-05-05T08:35:34.448Z,101562.16
2023-05-05T08:38:01.022Z,101553.91
2023-05-05T08:40:33.058Z,101546.34
2023-05-05T08:43:00.061Z,101559.22
2023-05-05T08:45:28.164Z,101560.94
2023-05-05T08:48:01.292Z,101559.03
2023-05-05T08:50:29.144Z,101559.03
2023-05-05T08:53:05.500Z,101559.91
2023-05-05T08:55:35.665Z,101569.00
2023-05-05T08:58:05.784Z,101567.09
2023-05-05T09:00:33.815Z,101575.16
2023-05-05T09:03:01.384Z,101570.69
2023-05-05T09:05:28.162Z,101571.38
2023-05-05T09:07:54.867Z,101569.47
2023-05-05T09:10:21.621Z,101577.72
2023-05-05T09:12:50.957Z,101580.28
2023-05-05T09:15:17.506Z,101586.63
2023-05-05T09:17:44.244Z,101582.00
2023-05-05T09:20:12.753Z,101575.47
2023-05-05T09:22:43.290Z,101581.81
2023-05-05T09:25:17.589Z,101581.81
2023-05-05T09:27:46.295Z,101584.56
2023-05-05T09:30:16.791Z,101587.31
2023-05-05T09:32:50.877Z,101576.31
2023-05-05T09:35:19.182Z,101581.81
2023-05-05T09:37:46.233Z,101584.56
2023-05-05T09:40:14.289Z,101583.53
2023-05-05T09:42:42.487Z,101588.00
2023-05-05T09:45:17.894Z,101580.63
2023-05-05T09:47:48.074Z,101578.88
2023-05-05T09:50:18.173Z,101583.38
2023-05-05T09:53:04.990Z,101579.59
2023-05-05T09:55:31.701Z,101576.13
2023-05-05T09:58:17.307Z,101573.25
2023-05-05T10:00:43.945Z,101572.38
2023-05-05T10:03:10.549Z,101575.13
2023-05-05T10:05:51.587Z,101566.91
2023-05-05T10:08:24.627Z,101570.50
2023-05-05T10:10:56.950Z,101570.50
2023-05-05T10:13:24.589Z,101572.38
2023-05-05T10:15:53.484Z,101564.16
2023-05-05T10:18:25.114Z,101564.16
2023-05-05T10:21:02.171Z,101563.97
2023-05-05T10:23:55.263Z,101559.50
2023-05-05T10:26:23.152Z,101560.53
2023-05-05T10:28:56.715Z,101553.16
2023-05-05T10:31:41.743Z,101556.75
2023-05-05T10:34:16.946Z,101553.16
2023-05-05T10:36:45.027Z,101548.53
2023-05-05T10:39:11.884Z,101543.88
2023-05-05T10:41:38.852Z,101546.63
2023-05-05T10:44:06.697Z,101536.69
2023-05-05T10:46:33.363Z,101540.28
2023-05-05T10:49:13.059Z,101537.34
2023-05-05T10:51:41.215Z,101542.00
2023-05-05T10:54:38.253Z,101537.34
2023-05-05T10:57:09.593Z,101531.00
2023-05-05T10:59:36.558Z,101524.66
2023-05-05T11:02:23.581Z,101525.34
2023-05-05T11:05:15.316Z,101527.41
2023-05-05T11:07:43.107Z,101525.69
2023-05-05T11:10:12.008Z,101529.13
2023-05-05T11:12:54.037Z,101520.88
2023-05-05T11:15:26.667Z,101522.78
2023-05-05T11:17:54.400Z,101532.91
2023-05-05T11:20:36.139Z,101533.75
2023-05-05T11:23:02.554Z,101540.28
2023-05-05T11:25:41.374Z,101541.13
2023-05-05T11:28:30.914Z,101541.13
2023-05-05T11:31:00.468Z,101550.56
2023-05-05T11:33:38.153Z,101560.69
2023-05-05T11:36:16.061Z,101561.56
2023-05-05T11:39:19.369Z,101576.31
2023-05-05T11:41:59.943Z,101586.63
2023-05-05T11:44:31.814Z,101592.31
2023-05-05T11:47:02.254Z,101603.28
2023-05-05T11:49:37.094Z,101615.13
2023-05-05T11:52:06.235Z,101627.16
2023-05-05T11:54:37.554Z,101618.06
2023-05-05T11:57:05.610Z,101606.22
2023-05-05T11:59:32.951Z,101609.81
2023-05-05T12:02:04.079Z,101621.66
2023-05-05T12:04:31.619Z,101622.69
2023-05-05T12:06:59.390Z,101613.59
2023-05-05T12:09:27.589Z,101608.09
2023-05-05T12:11:56.259Z,101611.72
2023-05-05T12:14:24.559Z,101608.09
2023-05-05T12:17:01.223Z,101613.59
2023-05-05T12:19:33.407Z,101612.75
2023-05-05T12:22:01.436Z,101614.44
2023-05-05T12:24:28.366Z,101613.59
2023-05-05T12:26:54.881Z,101612.75
2023-05-05T12:29:25.895Z,101616.16
2023-05-05T12:31:52.550Z,101611.53
2023-05-05T12:34:19.396Z,101612.56
2023-05-05T12:36:46.249Z,101607.94
2023-05-05T12:39:13.126Z,101607.06
2023-05-05T12:41:39.706Z,101598.84
2023-05-05T12:44:06.664Z,101605.19
2023-05-05T12:46:46.093Z,101595.06
2023-05-05T12:49:12.711Z,101590.59
2023-05-05T12:51:52.353Z,101587.00
2023-05-05T12:54:18.791Z,101582.53
2023-05-05T12:56:47.188Z,101583.41
2023-05-05T12:59:22.783Z,101582.34
2023-05-05T13:01:54.081Z,101588.03
2023-05-05T13:04:23.137Z,101591.63
2023-05-05T13:07:11.103Z,101594.38
2023-05-05T13:09:38.215Z,101589.91
2023-05-05T13:12:05.205Z,101592.66
2023-05-05T13:14:31.898Z,101595.41
2023-05-05T13:16:58.794Z,101608.09
2023-05-05T13:19:25.268Z,101605.53
2023-05-05T13:21:52.563Z,101609.16
2023-05-05T13:24:31.185Z,101608.28
2023-05-05T13:27:05.568Z,101618.41
2023-05-05T13:29:33.186Z,101623.06
2023-05-05T13:32:00.283Z,101621.16
2023-05-05T13:34:26.948Z,101622.00
2023-05-05T13:36:53.507Z,101628.38
2023-05-05T13:39:20.075Z,101626.66
2023-05-05T13:41:46.658Z,101622.00
2023-05-05T13:44:14.000Z,101614.81
2023-05-05T13:46:42.633Z,101618.41
2023-05-05T13:49:09.284Z,101616.53
2023-05-05T13:51:36.967Z,101614.81
2023-05-05T13:54:03.960Z,101610.34
2023-05-05T13:56:30.547Z,101615.66
2023-05-05T13:58:57.321Z,101618.59
2023-05-05T14:01:23.902Z,101623.06
2023-05-05T14:03:50.653Z,101624.94
2023-05-05T14:06:17.299Z,101619.44
2023-05-05T14:08:44.869Z,101624.94
2023-05-05T14:11:11.926Z,101625.97
2023-05-05T14:13:38.468Z,101614.81
2023-05-05T14:16:05.551Z,101613.97
2023-05-05T14:18:32.121Z,101613.97
2023-05-05T14:20:58.637Z,101617.56
2023-05-05T14:23:25.206Z,101620.31
2023-05-05T14:25:51.701Z,101619.44
2023-05-05T14:28:18.218Z,101616.72
2023-05-05T14:30:44.851Z,101614.81
2023-05-05T14:33:11.542Z,101612.75
2023-05-05T14:35:38.246Z,101603.66
2023-05-05T14:38:04.869Z,101610.00
2023-05-05T14:40:31.504Z,101597.97
2023-05-05T14:42:58.160Z,101595.06
2023-05-05T14:45:24.673Z,101589.56
2023-05-05T14:47:51.213Z,101583.03
2023-05-05T14:50:17.763Z,101575.66
2023-05-05T14:52:44.639Z,101574.59
2023-05-05T14:55:11.612Z,101577.34
2023-05-05T14:57:38.873Z,101579.06
2023-05-05T15:00:08.311Z,101580.97
2023-05-05T15:02:34.973Z,101583.69
2023-05-05T15:05:01.526Z,101583.69
2023-05-05T15:07:29.101Z,101579.25
2023-05-05T15:09:58.546Z,101579.25
2023-05-05T15:12:26.007Z,101580.97
2023-05-05T15:14:52.697Z,101582.84
2023-05-05T15:17:19.248Z,101581.13
2023-05-05T15:19:45.785Z,101582.00
2023-05-05T15:22:12.295Z,101574.78
2023-05-05T15:24:38.945Z,101574.78
2023-05-05T15:27:05.531Z,101566.56
2023-05-05T15:29:32.252Z,101558.31
2023-05-05T15:31:58.866Z,101553.69
2023-05-05T15:34:26.175Z,101549.22
2023-05-05T15:36:52.856Z,101550.06
2023-05-05T15:39:19.493Z,101549.03
2023-05-05T15:41:46.133Z,101546.28
2023-05-05T15:44:12.594Z,101556.25
2023-05-05T15:46:39.737Z,101546.09
2023-05-05T15:49:06.329Z,101552.47
2023-05-05T15:51:32.819Z,101554.16
2023-05-05T15:54:00.174Z,101552.31
2023-05-05T15:56:29.641Z,101544.94
2023-05-05T15:58:56.747Z,101548.34
2023-05-05T16:01:23.376Z,101542.84
2023-05-05T16:03:49.945Z,101551.75
2023-05-05T16:06:16.471Z,101540.78
2023-05-05T16:08:43.058Z,101540.78
2023-05-05T16:11:09.623Z,101536.81
2023-05-05T16:13:36.299Z,101534.06
2023-05-05T16:16:02.928Z,101534.72
2023-05-05T16:18:29.383Z,101535.59
2023-05-05T16:20:55.986Z,101531.78
2023-05-05T16:23:22.554Z,101536.25
2023-05-05T16:25:49.096Z,101539.00
2023-05-05T16:28:15.543Z,101540.69
2023-05-05T16:30:43.172Z,101532.47
2023-05-05T16:33:09.870Z,101539.66
2023-05-05T16:35:36.643Z,101533.31
2023-05-05T16:38:03.528Z,101537.59
2023-05-05T16:40:30.193Z,101537.59
2023-05-05T16:42:56.647Z,101538.44
2023-05-05T16:45:24.284Z,101545.47
2023-05-05T16:47:51.129Z,101540.63
2023-05-05T16:50:17.859Z,101536.84
2023-05-05T16:52:44.395Z,101538.56
2023-05-05T16:55:10.972Z,101543.88
2023-05-05T16:57:37.905Z,101543.69
2023-05-05T17:00:06.257Z,101544.34
2023-05-05T17:02:33.382Z,101538.66
2023-05-05T17:04:59.978Z,101547.41
2023-05-05T17:07:26.698Z,101538.78
2023-05-05T17:09:53.292Z,101540.13
2023-05-05T17:12:19.802Z,101539.41
2023-05-05T17:14:46.500Z,101543.13
2023-05-05T17:17:13.156Z,101540.75
2023-05-05T17:19:39.723Z,101527.06
2023-05-05T17:22:06.302Z,101534.25
2023-05-05T17:24:32.800Z,101531.69
2023-05-05T17:26:59.537Z,101537.13
2023-05-05T17:29:26.553Z,101537.41
2023-05-05T17:31:54.127Z,101543.94
2023-05-05T17:34:20.908Z,101533.53
2023-05-05T17:36:47.444Z,101530.66
2023-05-05T17:39:13.972Z,101524.88
2023-05-05T17:41:41.988Z,101525.44
2023-05-05T17:44:08.594Z,101522.41
2023-05-05T17:46:35.243Z,101526.59
2023-05-05T17:49:02.719Z,101524.22
2023-05-05T17:51:29.252Z,101534.53
2023-05-05T17:53:56.102Z,101534.25
2023-05-05T17:56:23.722Z,101535.50
2023-05-05T17:58:50.316Z,101541.38
2023-05-05T18:01:22.197Z,101538.78
2023-05-05T18:03:49.194Z,101535.75
2023-05-05T18:06:16.028Z,101532.31
2023-05-05T18:08:42.903Z,101544.38
2023-05-05T18:11:09.539Z,101537.53
2023-05-05T18:13:36.100Z,101543.03
2023-05-05T18:16:02.784Z,101542.56
2023-05-05T18:18:29.645Z,101540.84
2023-05-05T18:20:56.147Z,101544.63
2023-05-05T18:23:22.764Z,101536.56
2023-05-05T18:25:49.241Z,101545.00
2023-05-05T18:28:15.784Z,101551.34
2023-05-05T18:30:42.510Z,101549.66
2023-05-05T18:33:09.130Z,101545.19
2023-05-05T18:35:35.806Z,101549.84
2023-05-05T18:38:03.335Z,101548.13
2023-05-05T18:40:29.865Z,101544.53
2023-05-05T18:42:56.913Z,101550.22
2023-05-05T18:45:23.510Z,101552.09
2023-05-05T18:47:50.052Z,101557.59
2023-05-05T18:50:17.119Z,101555.03
2023-05-05T18:52:43.584Z,101568.78
2023-05-05T18:55:10.369Z,101574.44
2023-05-05T18:57:37.163Z,101576.50
2023-05-05T19:00:03.900Z,101573.75
2023-05-05T19:02:30.535Z,101572.06
2023-05-05T19:04:57.099Z,101577.72
2023-05-05T19:07:34.389Z,101571.38
2023-05-05T19:10:04.044Z,101577.06
2023-05-05T19:12:30.594Z,101568.16
2023-05-05T19:14:57.059Z,101574.69
2023-05-05T19:17:23.700Z,101578.47
2023-05-05T19:19:50.617Z,101579.50
2023-05-05T19:22:21.716Z,101590.69
2023-05-05T19:24:48.269Z,101594.47
2023-05-05T19:27:16.598Z,101601.00
2023-05-05T19:29:43.763Z,101597.59
2023-05-05T19:32:10.530Z,101602.22
2023-05-05T19:34:37.128Z,101602.22
2023-05-05T19:37:03.676Z,101595.22
2023-05-05T19:39:30.290Z,101600.72
2023-05-05T19:41:56.739Z,101602.59
2023-05-05T19:44:23.748Z,101602.78
2023-05-05T19:46:50.338Z,101603.81
2023-05-05T19:49:16.846Z,101602.97
2023-05-05T19:51:43.819Z,101605.03
2023-05-05T19:54:10.511Z,101609.69
2023-05-05T19:56:37.066Z,101608.81
2023-05-05T19:59:05.270Z,101609.00
2023-05-05T20:01:33.764Z,101612.78
2023-05-05T20:04:00.446Z,101601.81
2023-05-05T20:06:27.116Z,101605.59
2023-05-05T20:08:54.737Z,101602.00
2023-05-05T20:11:21.982Z,101604.72
2023-05-05T20:13:49.924Z,101607.66
2023-05-05T20:16:16.667Z,101610.41
2023-05-05T20:18:43.581Z,101610.41
2023-05-05T20:21:10.140Z,101614.19
2023-05-05T20:23:37.090Z,101610.59
2023-05-05T20:26:04.336Z,101614.19
2023-05-05T20:28:31.741Z,101607.00
2023-05-05T20:30:58.392Z,101606.13
2023-05-05T20:33:25.014Z,101605.28
2023-05-05T20:35:51.497Z,101607.19
2023-05-05T20:38:18.013Z,101613.53
2023-05-05T20:40:44.565Z,101601.69
2023-05-05T20:43:11.163Z,101598.09
2023-05-05T20:45:37.684Z,101602.72
2023-05-05T20:48:05.564Z,101599.97
2023-05-05T20:50:32.192Z,101590.03
2023-05-05T20:52:58.901Z,101592.78
2023-05-05T20:55:25.884Z,101592.78
2023-05-05T20:57:52.410Z,101594.66
2023-05-05T21:00:18.909Z,101587.28
2023-05-05T21:02:45.546Z,101588.31
2023-05-05T21:05:12.624Z,101593.81
2023-05-05T21:07:39.102Z,101594.66
2023-05-05T21:10:06.311Z,101595.69
2023-05-05T21:12:33.803Z,101591.06
2023-05-05T21:15:00.339Z,101594.84
2023-05-05T21:17:27.631Z,101599.47
2023-05-05T21:19:54.838Z,101599.47
2023-05-05T21:22:22.103Z,101599.47
2023-05-05T21:24:48.733Z,101595.03
2023-05-05T21:27:15.729Z,101595.88
2023-05-05T21:29:42.167Z,101594.00
2023-05-05T21:32:10.601Z,101595.03
2023-05-05T21:34:38.307Z,101600.53
2023-05-05T21:37:05.559Z,101597.78
2023-05-05T21:39:33.052Z,101594.19
2023-05-05T21:42:00.694Z,101598.81
2023-05-05T21:44:28.226Z,101592.47
2023-05-05T21:46:55.663Z,101588.84
2023-05-05T21:49:22.153Z,101586.97
2023-05-05T21:51:50.606Z,101591.59
2023-05-05T21:54:17.097Z,101594.34
2023-05-05T21:56:43.704Z,101593.50
2023-05-05T21:59:10.180Z,101594.34
2023-05-05T22:01:36.953Z,101591.59
2023-05-05T22:04:03.934Z,101592.63
2023-05-05T22:06:30.648Z,101585.41
2023-05-05T22:08:57.167Z,101592.63
2023-05-05T22:11:23.783Z,101586.25
2023-05-05T22:13:50.526Z,101589.00
2023-05-05T22:16:19.990Z,101583.53
2023-05-05T22:18:46.808Z,101590.91
2023-05-05T22:21:13.639Z,101589.19
2023-05-05T22:23:41.864Z,101590.06
2023-05-05T22:26:09.379Z,101585.41
2023-05-05T22:28:36.266Z,101586.44
2023-05-05T22:31:02.867Z,101590.22
2023-05-05T22:33:29.486Z,101582.00
2023-05-05T22:35:56.514Z,101583.69
2023-05-05T22:38:23.023Z,101580.97
2023-05-05T22:40:49.622Z,101575.66
2023-05-05T22:43:16.147Z,101580.09
2023-05-05T22:45:43.461Z,101584.75
2023-05-05T22:48:10.114Z,101582.00
2023-05-05T22:50:36.754Z,101570.16
2023-05-05T22:53:03.619Z,101569.31
2023-05-05T22:55:30.174Z,101571.19
2023-05-05T22:57:56.697Z,101569.31
2023-05-05T23:00:23.750Z,101575.66
2023-05-05T23:02:50.351Z,101576.69
2023-05-05T23:05:17.019Z,101569.47
2023-05-05T23:07:43.556Z,101573.94
2023-05-05T23:10:10.350Z,101572.22
2023-05-05T23:12:36.915Z,101562.28
2023-05-05T23:15:04.159Z,101571.38
2023-05-05T23:17:30.697Z,101568.63
2023-05-05T23:19:57.209Z,101576.88
2023-05-05T23:22:23.710Z,101566.91
2023-05-05T23:24:50.162Z,101573.25
2023-05-05T23:27:16.688Z,101573.25
2023-05-05T23:29:43.249Z,101576.00
2023-05-05T23:32:09.745Z,101576.00
2023-05-05T23:34:36.237Z,101585.09
2023-05-05T23:37:05.376Z,101592.47
2023-05-05T23:39:35.675Z,101575.16
2023-05-05T23:42:02.153Z,101580.66
2023-05-05T23:44:28.626Z,101581.69
2023-05-05T23:46:55.226Z,101576.19
2023-05-05T23:49:21.760Z,101578.94
2023-05-05T23:51:48.210Z,101574.47
2023-05-05T23:54:14.692Z,101578.09
2023-05-05T23:56:41.122Z,101580.84
2023-05-05T23:59:07.690Z,101566.25
